sensor_id;sensor_type;location;lat;lon;timestamp;P1;durP1;ratioP1;P2;durP2;ratioP2
45676;SDS011;31390;51.186;6.830;2023-04-16T00:01:14;49.35;;;37.50;;
45676;SDS011;31390;51.186;6.830;2023-04-16T00:03:40;42.13;;;35.83;;
45676;SDS011;31390;51.186;6.830;2023-04-16T00:06:09;45.15;;;34.70;;
45676;SDS011;31390;51.186;6.830;2023-04-16T00:08:35;43.05;;;34.65;;
45676;SDS011;31390;51.186;6.830;2023-04-16T00:11:02;46.03;;;34.13;;
45676;SDS011;31390;51.186;6.830;2023-04-16T00:13:29;45.90;;;37.55;;
45676;SDS011;31390;51.186;6.830;2023-04-16T00:15:55;49.17;;;36.20;;
45676;SDS011;31390;51.186;6.830;2023-04-16T00:18:22;46.97;;;36.55;;
45676;SDS011;31390;51.186;6.830;2023-04-16T00:20:48;44.70;;;35.53;;
45676;SDS011;31390;51.186;6.830;2023-04-16T00:23:15;52.42;;;39.55;;
45676;SDS011;31390;51.186;6.830;2023-04-16T00:25:42;49.95;;;38.08;;
45676;SDS011;31390;51.186;6.830;2023-04-16T00:28:09;47.13;;;37.20;;
45676;SDS011;31390;51.186;6.830;2023-04-16T00:30:36;48.83;;;38.15;;
45676;SDS011;31390;51.186;6.830;2023-04-16T00:33:03;53.17;;;39.20;;
45676;SDS011;31390;51.186;6.830;2023-04-16T00:35:30;47.42;;;38.53;;
45676;SDS011;31390;51.186;6.830;2023-04-16T00:37:56;49.58;;;37.75;;
45676;SDS011;31390;51.186;6.830;2023-04-16T00:40:25;51.70;;;38.20;;
45676;SDS011;31390;51.186;6.830;2023-04-16T00:42:52;46.80;;;35.95;;
45676;SDS011;31390;51.186;6.830;2023-04-16T00:45:18;48.95;;;37.08;;
45676;SDS011;31390;51.186;6.830;2023-04-16T00:47:45;44.53;;;35.33;;
45676;SDS011;31390;51.186;6.830;2023-04-16T00:50:12;47.05;;;36.45;;
45676;SDS011;31390;51.186;6.830;2023-04-16T00:52:39;49.63;;;38.67;;
45676;SDS011;31390;51.186;6.830;2023-04-16T00:55:06;52.00;;;38.67;;
45676;SDS011;31390;51.186;6.830;2023-04-16T00:57:32;51.88;;;38.67;;
45676;SDS011;31390;51.186;6.830;2023-04-16T00:59:59;49.92;;;37.83;;
45676;SDS011;31390;51.186;6.830;2023-04-16T01:02:25;46.25;;;36.40;;
45676;SDS011;31390;51.186;6.830;2023-04-16T01:04:52;45.05;;;33.20;;
45676;SDS011;31390;51.186;6.830;2023-04-16T01:07:18;37.33;;;26.50;;
45676;SDS011;31390;51.186;6.830;2023-04-16T01:09:45;35.65;;;24.50;;
45676;SDS011;31390;51.186;6.830;2023-04-16T01:12:12;28.83;;;22.52;;
45676;SDS011;31390;51.186;6.830;2023-04-16T01:14:38;32.10;;;21.85;;
45676;SDS011;31390;51.186;6.830;2023-04-16T01:17:05;33.75;;;21.73;;
45676;SDS011;31390;51.186;6.830;2023-04-16T01:19:31;36.13;;;22.42;;
45676;SDS011;31390;51.186;6.830;2023-04-16T01:22:01;30.13;;;21.48;;
45676;SDS011;31390;51.186;6.830;2023-04-16T01:24:28;35.33;;;23.75;;
45676;SDS011;31390;51.186;6.830;2023-04-16T01:26:56;32.83;;;24.40;;
45676;SDS011;31390;51.186;6.830;2023-04-16T01:29:22;31.88;;;23.38;;
45676;SDS011;31390;51.186;6.830;2023-04-16T01:31:50;26.77;;;20.05;;
45676;SDS011;31390;51.186;6.830;2023-04-16T01:34:30;30.63;;;20.42;;
45676;SDS011;31390;51.186;6.830;2023-04-16T01:36:56;27.65;;;20.05;;
45676;SDS011;31390;51.186;6.830;2023-04-16T01:39:23;30.88;;;20.42;;
45676;SDS011;31390;51.186;6.830;2023-04-16T01:41:49;29.08;;;20.08;;
45676;SDS011;31390;51.186;6.830;2023-04-16T01:44:16;28.27;;;19.80;;
45676;SDS011;31390;51.186;6.830;2023-04-16T01:46:42;27.80;;;20.33;;
45676;SDS011;31390;51.186;6.830;2023-04-16T01:49:10;30.40;;;21.80;;
45676;SDS011;31390;51.186;6.830;2023-04-16T01:51:36;27.58;;;18.67;;
45676;SDS011;31390;51.186;6.830;2023-04-16T01:54:03;31.92;;;19.95;;
45676;SDS011;31390;51.186;6.830;2023-04-16T01:56:29;25.33;;;19.10;;
45676;SDS011;31390;51.186;6.830;2023-04-16T01:58:56;30.52;;;19.02;;
45676;SDS011;31390;51.186;6.830;2023-04-16T02:01:25;25.15;;;18.88;;
45676;SDS011;31390;51.186;6.830;2023-04-16T02:03:51;26.30;;;18.95;;
45676;SDS011;31390;51.186;6.830;2023-04-16T02:06:18;27.40;;;19.33;;
45676;SDS011;31390;51.186;6.830;2023-04-16T02:08:45;27.85;;;19.98;;
45676;SDS011;31390;51.186;6.830;2023-04-16T02:11:13;30.23;;;22.05;;
45676;SDS011;31390;51.186;6.830;2023-04-16T02:13:39;30.75;;;21.50;;
45676;SDS011;31390;51.186;6.830;2023-04-16T02:16:06;35.92;;;22.85;;
45676;SDS011;31390;51.186;6.830;2023-04-16T02:18:42;34.28;;;25.70;;
45676;SDS011;31390;51.186;6.830;2023-04-16T02:21:09;35.47;;;24.30;;
45676;SDS011;31390;51.186;6.830;2023-04-16T02:23:36;43.13;;;30.85;;
45676;SDS011;31390;51.186;6.830;2023-04-16T02:26:06;42.90;;;32.83;;
45676;SDS011;31390;51.186;6.830;2023-04-16T02:28:32;47.08;;;32.17;;
45676;SDS011;31390;51.186;6.830;2023-04-16T02:30:59;45.80;;;33.65;;
45676;SDS011;31390;51.186;6.830;2023-04-16T02:33:30;50.83;;;34.35;;
45676;SDS011;31390;51.186;6.830;2023-04-16T02:36:00;49.35;;;35.13;;
45676;SDS011;31390;51.186;6.830;2023-04-16T02:38:27;57.25;;;35.85;;
45676;SDS011;31390;51.186;6.830;2023-04-16T02:40:53;51.38;;;34.70;;
45676;SDS011;31390;51.186;6.830;2023-04-16T02:43:20;48.70;;;35.55;;
45676;SDS011;31390;51.186;6.830;2023-04-16T02:45:46;51.72;;;37.03;;
45676;SDS011;31390;51.186;6.830;2023-04-16T02:48:12;58.33;;;41.55;;
45676;SDS011;31390;51.186;6.830;2023-04-16T02:50:39;49.65;;;37.53;;
45676;SDS011;31390;51.186;6.830;2023-04-16T02:53:05;59.50;;;41.35;;
45676;SDS011;31390;51.186;6.830;2023-04-16T02:55:33;69.45;;;45.95;;
45676;SDS011;31390;51.186;6.830;2023-04-16T02:57:59;68.88;;;43.42;;
45676;SDS011;31390;51.186;6.830;2023-04-16T03:00:26;73.53;;;47.65;;
45676;SDS011;31390;51.186;6.830;2023-04-16T03:02:52;70.18;;;46.65;;
45676;SDS011;31390;51.186;6.830;2023-04-16T03:05:19;71.20;;;47.05;;
45676;SDS011;31390;51.186;6.830;2023-04-16T03:07:46;67.15;;;46.03;;
45676;SDS011;31390;51.186;6.830;2023-04-16T03:10:13;77.55;;;47.13;;
45676;SDS011;31390;51.186;6.830;2023-04-16T03:12:40;79.40;;;48.28;;
45676;SDS011;31390;51.186;6.830;2023-04-16T03:15:06;69.03;;;46.30;;
45676;SDS011;31390;51.186;6.830;2023-04-16T03:17:33;70.03;;;45.53;;
45676;SDS011;31390;51.186;6.830;2023-04-16T03:20:00;72.15;;;48.28;;
45676;SDS011;31390;51.186;6.830;2023-04-16T03:22:26;73.03;;;48.72;;
45676;SDS011;31390;51.186;6.830;2023-04-16T03:24:53;79.03;;;51.35;;
45676;SDS011;31390;51.186;6.830;2023-04-16T03:27:19;83.57;;;52.45;;
45676;SDS011;31390;51.186;6.830;2023-04-16T03:29:46;83.70;;;51.25;;
45676;SDS011;31390;51.186;6.830;2023-04-16T03:32:13;82.63;;;52.55;;
45676;SDS011;31390;51.186;6.830;2023-04-16T03:34:39;85.35;;;52.17;;
45676;SDS011;31390;51.186;6.830;2023-04-16T03:37:06;90.55;;;53.53;;
45676;SDS011;31390;51.186;6.830;2023-04-16T03:39:34;84.07;;;51.45;;
45676;SDS011;31390;51.186;6.830;2023-04-16T03:42:01;84.75;;;53.33;;
45676;SDS011;31390;51.186;6.830;2023-04-16T03:44:28;85.00;;;52.35;;
45676;SDS011;31390;51.186;6.830;2023-04-16T03:46:55;88.50;;;53.00;;
45676;SDS011;31390;51.186;6.830;2023-04-16T03:49:22;82.53;;;52.33;;
45676;SDS011;31390;51.186;6.830;2023-04-16T03:51:49;89.03;;;55.20;;
45676;SDS011;31390;51.186;6.830;2023-04-16T03:54:16;88.55;;;55.22;;
45676;SDS011;31390;51.186;6.830;2023-04-16T03:56:48;87.82;;;55.05;;
45676;SDS011;31390;51.186;6.830;2023-04-16T03:59:15;85.53;;;54.13;;
45676;SDS011;31390;51.186;6.830;2023-04-16T04:01:42;87.28;;;53.20;;
45676;SDS011;31390;51.186;6.830;2023-04-16T04:04:09;85.75;;;54.67;;
45676;SDS011;31390;51.186;6.830;2023-04-16T04:06:36;89.63;;;54.78;;
45676;SDS011;31390;51.186;6.830;2023-04-16T04:09:02;86.43;;;54.55;;
45676;SDS011;31390;51.186;6.830;2023-04-16T04:11:29;89.63;;;54.58;;
45676;SDS011;31390;51.186;6.830;2023-04-16T04:13:55;88.82;;;52.78;;
45676;SDS011;31390;51.186;6.830;2023-04-16T04:16:22;85.38;;;53.67;;
45676;SDS011;31390;51.186;6.830;2023-04-16T04:18:48;76.82;;;51.25;;
45676;SDS011;31390;51.186;6.830;2023-04-16T04:21:15;79.57;;;50.55;;
45676;SDS011;31390;51.186;6.830;2023-04-16T04:23:41;76.25;;;50.60;;
45676;SDS011;31390;51.186;6.830;2023-04-16T04:26:09;77.22;;;51.67;;
45676;SDS011;31390;51.186;6.830;2023-04-16T04:28:36;73.40;;;49.28;;
45676;SDS011;31390;51.186;6.830;2023-04-16T04:31:03;74.03;;;47.10;;
45676;SDS011;31390;51.186;6.830;2023-04-16T04:33:29;74.68;;;48.08;;
45676;SDS011;31390;51.186;6.830;2023-04-16T04:35:56;74.30;;;49.28;;
45676;SDS011;31390;51.186;6.830;2023-04-16T04:38:24;69.85;;;46.33;;
45676;SDS011;31390;51.186;6.830;2023-04-16T04:40:52;70.00;;;46.95;;
45676;SDS011;31390;51.186;6.830;2023-04-16T04:43:21;72.00;;;46.00;;
45676;SDS011;31390;51.186;6.830;2023-04-16T04:45:49;72.53;;;46.05;;
45676;SDS011;31390;51.186;6.830;2023-04-16T04:48:16;68.47;;;45.15;;
45676;SDS011;31390;51.186;6.830;2023-04-16T04:50:43;64.32;;;44.75;;
45676;SDS011;31390;51.186;6.830;2023-04-16T04:53:10;71.72;;;47.38;;
45676;SDS011;31390;51.186;6.830;2023-04-16T04:55:37;74.38;;;47.97;;
45676;SDS011;31390;51.186;6.830;2023-04-16T04:58:04;73.78;;;48.92;;
45676;SDS011;31390;51.186;6.830;2023-04-16T05:00:32;84.65;;;53.13;;
45676;SDS011;31390;51.186;6.830;2023-04-16T05:03:03;81.15;;;51.08;;
45676;SDS011;31390;51.186;6.830;2023-04-16T05:05:30;79.95;;;50.58;;
45676;SDS011;31390;51.186;6.830;2023-04-16T05:07:56;81.50;;;51.72;;
45676;SDS011;31390;51.186;6.830;2023-04-16T05:10:23;87.53;;;54.75;;
45676;SDS011;31390;51.186;6.830;2023-04-16T05:12:51;88.03;;;53.80;;
45676;SDS011;31390;51.186;6.830;2023-04-16T05:15:17;92.20;;;53.67;;
45676;SDS011;31390;51.186;6.830;2023-04-16T05:17:44;98.13;;;57.95;;
45676;SDS011;31390;51.186;6.830;2023-04-16T05:20:11;94.93;;;57.00;;
45676;SDS011;31390;51.186;6.830;2023-04-16T05:22:37;90.78;;;56.35;;
45676;SDS011;31390;51.186;6.830;2023-04-16T05:25:04;98.03;;;57.60;;
45676;SDS011;31390;51.186;6.830;2023-04-16T05:27:31;97.45;;;57.65;;
45676;SDS011;31390;51.186;6.830;2023-04-16T05:29:58;99.97;;;57.45;;
45676;SDS011;31390;51.186;6.830;2023-04-16T05:32:24;96.63;;;59.00;;
45676;SDS011;31390;51.186;6.830;2023-04-16T05:34:51;96.90;;;56.30;;
45676;SDS011;31390;51.186;6.830;2023-04-16T05:37:17;106.85;;;57.03;;
45676;SDS011;31390;51.186;6.830;2023-04-16T05:39:44;103.13;;;58.22;;
45676;SDS011;31390;51.186;6.830;2023-04-16T05:42:10;105.07;;;57.55;;
45676;SDS011;31390;51.186;6.830;2023-04-16T05:44:37;111.68;;;62.47;;
45676;SDS011;31390;51.186;6.830;2023-04-16T05:47:03;100.13;;;57.30;;
45676;SDS011;31390;51.186;6.830;2023-04-16T05:49:30;106.30;;;59.38;;
45676;SDS011;31390;51.186;6.830;2023-04-16T05:51:56;111.57;;;60.15;;
45676;SDS011;31390;51.186;6.830;2023-04-16T05:54:23;109.95;;;61.08;;
45676;SDS011;31390;51.186;6.830;2023-04-16T05:56:49;102.93;;;58.83;;
45676;SDS011;31390;51.186;6.830;2023-04-16T05:59:16;104.55;;;58.97;;
45676;SDS011;31390;51.186;6.830;2023-04-16T06:01:42;101.85;;;59.20;;
45676;SDS011;31390;51.186;6.830;2023-04-16T06:04:09;104.05;;;57.22;;
45676;SDS011;31390;51.186;6.830;2023-04-16T06:06:36;95.18;;;57.33;;
45676;SDS011;31390;51.186;6.830;2023-04-16T06:09:02;109.57;;;58.47;;
45676;SDS011;31390;51.186;6.830;2023-04-16T06:11:29;111.72;;;59.13;;
45676;SDS011;31390;51.186;6.830;2023-04-16T06:13:55;100.82;;;57.90;;
45676;SDS011;31390;51.186;6.830;2023-04-16T06:16:22;98.63;;;56.25;;
45676;SDS011;31390;51.186;6.830;2023-04-16T06:18:49;108.90;;;60.50;;
45676;SDS011;31390;51.186;6.830;2023-04-16T06:21:18;98.72;;;56.97;;
45676;SDS011;31390;51.186;6.830;2023-04-16T06:23:45;109.05;;;60.22;;
45676;SDS011;31390;51.186;6.830;2023-04-16T06:26:11;127.00;;;63.78;;
45676;SDS011;31390;51.186;6.830;2023-04-16T06:28:38;120.97;;;61.05;;
45676;SDS011;31390;51.186;6.830;2023-04-16T06:31:04;111.13;;;62.03;;
45676;SDS011;31390;51.186;6.830;2023-04-16T06:33:31;124.10;;;62.92;;
45676;SDS011;31390;51.186;6.830;2023-04-16T06:35:57;123.68;;;64.53;;
45676;SDS011;31390;51.186;6.830;2023-04-16T06:38:24;122.50;;;62.45;;
45676;SDS011;31390;51.186;6.830;2023-04-16T06:40:50;106.97;;;57.70;;
45676;SDS011;31390;51.186;6.830;2023-04-16T06:43:17;117.40;;;63.05;;
45676;SDS011;31390;51.186;6.830;2023-04-16T06:45:43;113.38;;;62.20;;
45676;SDS011;31390;51.186;6.830;2023-04-16T06:48:10;118.95;;;62.50;;
45676;SDS011;31390;51.186;6.830;2023-04-16T06:50:36;124.40;;;63.95;;
45676;SDS011;31390;51.186;6.830;2023-04-16T06:53:03;119.80;;;61.10;;
45676;SDS011;31390;51.186;6.830;2023-04-16T06:55:30;118.65;;;60.35;;
45676;SDS011;31390;51.186;6.830;2023-04-16T06:57:56;98.97;;;54.63;;
45676;SDS011;31390;51.186;6.830;2023-04-16T07:00:23;96.15;;;53.58;;
45676;SDS011;31390;51.186;6.830;2023-04-16T07:02:49;90.90;;;53.00;;
45676;SDS011;31390;51.186;6.830;2023-04-16T07:05:16;87.45;;;50.60;;
45676;SDS011;31390;51.186;6.830;2023-04-16T07:07:42;71.97;;;45.47;;
45676;SDS011;31390;51.186;6.830;2023-04-16T07:10:09;87.68;;;49.83;;
45676;SDS011;31390;51.186;6.830;2023-04-16T07:12:36;70.32;;;44.80;;
45676;SDS011;31390;51.186;6.830;2023-04-16T07:15:02;66.70;;;44.40;;
45676;SDS011;31390;51.186;6.830;2023-04-16T07:17:29;67.10;;;43.88;;
45676;SDS011;31390;51.186;6.830;2023-04-16T07:19:55;58.22;;;39.63;;
45676;SDS011;31390;51.186;6.830;2023-04-16T07:22:22;62.10;;;42.10;;
45676;SDS011;31390;51.186;6.830;2023-04-16T07:24:49;56.92;;;39.88;;
45676;SDS011;31390;51.186;6.830;2023-04-16T07:27:16;54.50;;;37.22;;
45676;SDS011;31390;51.186;6.830;2023-04-16T07:29:42;62.38;;;40.75;;
45676;SDS011;31390;51.186;6.830;2023-04-16T07:32:10;48.85;;;36.03;;
45676;SDS011;31390;51.186;6.830;2023-04-16T07:34:40;52.75;;;36.22;;
45676;SDS011;31390;51.186;6.830;2023-04-16T07:37:07;46.78;;;35.75;;
45676;SDS011;31390;51.186;6.830;2023-04-16T07:39:34;46.85;;;33.45;;
45676;SDS011;31390;51.186;6.830;2023-04-16T07:42:00;42.08;;;31.58;;
45676;SDS011;31390;51.186;6.830;2023-04-16T07:44:27;44.97;;;33.80;;
45676;SDS011;31390;51.186;6.830;2023-04-16T07:46:54;45.88;;;33.65;;
45676;SDS011;31390;51.186;6.830;2023-04-16T07:49:20;47.85;;;35.78;;
45676;SDS011;31390;51.186;6.830;2023-04-16T07:51:47;42.50;;;33.63;;
45676;SDS011;31390;51.186;6.830;2023-04-16T07:54:14;42.28;;;33.13;;
45676;SDS011;31390;51.186;6.830;2023-04-16T07:56:40;41.13;;;32.35;;
45676;SDS011;31390;51.186;6.830;2023-04-16T07:59:07;39.35;;;32.55;;
45676;SDS011;31390;51.186;6.830;2023-04-16T08:01:40;40.42;;;31.15;;
45676;SDS011;31390;51.186;6.830;2023-04-16T08:04:06;39.88;;;31.95;;
45676;SDS011;31390;51.186;6.830;2023-04-16T08:06:33;40.42;;;31.33;;
45676;SDS011;31390;51.186;6.830;2023-04-16T08:09:00;37.67;;;31.27;;
45676;SDS011;31390;51.186;6.830;2023-04-16T08:11:26;40.97;;;32.80;;
45676;SDS011;31390;51.186;6.830;2023-04-16T08:13:53;45.58;;;34.97;;
45676;SDS011;31390;51.186;6.830;2023-04-16T08:16:20;42.25;;;32.70;;
45676;SDS011;31390;51.186;6.830;2023-04-16T08:18:46;37.58;;;31.38;;
45676;SDS011;31390;51.186;6.830;2023-04-16T08:21:14;41.60;;;33.63;;
45676;SDS011;31390;51.186;6.830;2023-04-16T08:23:41;44.45;;;35.15;;
45676;SDS011;31390;51.186;6.830;2023-04-16T08:26:08;42.65;;;32.90;;
45676;SDS011;31390;51.186;6.830;2023-04-16T08:28:35;40.45;;;30.75;;
45676;SDS011;31390;51.186;6.830;2023-04-16T08:31:01;39.60;;;32.40;;
45676;SDS011;31390;51.186;6.830;2023-04-16T08:33:27;41.00;;;31.88;;
45676;SDS011;31390;51.186;6.830;2023-04-16T08:35:54;37.85;;;31.98;;
45676;SDS011;31390;51.186;6.830;2023-04-16T08:38:21;36.05;;;30.27;;
45676;SDS011;31390;51.186;6.830;2023-04-16T08:40:47;36.22;;;29.83;;
45676;SDS011;31390;51.186;6.830;2023-04-16T08:43:14;36.42;;;30.38;;
45676;SDS011;31390;51.186;6.830;2023-04-16T08:45:41;35.50;;;28.98;;
45676;SDS011;31390;51.186;6.830;2023-04-16T08:48:10;33.47;;;27.08;;
45676;SDS011;31390;51.186;6.830;2023-04-16T08:50:37;30.48;;;26.92;;
45676;SDS011;31390;51.186;6.830;2023-04-16T08:53:04;34.08;;;27.67;;
45676;SDS011;31390;51.186;6.830;2023-04-16T08:55:42;30.85;;;27.48;;
45676;SDS011;31390;51.186;6.830;2023-04-16T08:58:18;31.75;;;27.27;;
45676;SDS011;31390;51.186;6.830;2023-04-16T09:00:46;28.02;;;25.02;;
45676;SDS011;31390;51.186;6.830;2023-04-16T09:03:13;27.98;;;24.40;;
45676;SDS011;31390;51.186;6.830;2023-04-16T09:05:40;28.55;;;25.08;;
45676;SDS011;31390;51.186;6.830;2023-04-16T09:08:07;28.55;;;25.42;;
45676;SDS011;31390;51.186;6.830;2023-04-16T09:10:36;26.13;;;23.35;;
45676;SDS011;31390;51.186;6.830;2023-04-16T09:13:03;31.45;;;24.42;;
45676;SDS011;31390;51.186;6.830;2023-04-16T09:15:29;26.90;;;23.83;;
45676;SDS011;31390;51.186;6.830;2023-04-16T09:18:00;24.60;;;21.95;;
45676;SDS011;31390;51.186;6.830;2023-04-16T09:20:26;25.95;;;22.38;;
45676;SDS011;31390;51.186;6.830;2023-04-16T09:22:53;23.73;;;21.23;;
45676;SDS011;31390;51.186;6.830;2023-04-16T09:25:22;25.02;;;22.33;;
45676;SDS011;31390;51.186;6.830;2023-04-16T09:27:50;23.17;;;20.77;;
45676;SDS011;31390;51.186;6.830;2023-04-16T09:30:23;26.00;;;22.20;;
45676;SDS011;31390;51.186;6.830;2023-04-16T09:32:51;26.52;;;22.83;;
45676;SDS011;31390;51.186;6.830;2023-04-16T09:35:18;24.60;;;22.10;;
45676;SDS011;31390;51.186;6.830;2023-04-16T09:37:55;27.85;;;22.70;;
45676;SDS011;31390;51.186;6.830;2023-04-16T09:40:26;26.00;;;23.20;;
45676;SDS011;31390;51.186;6.830;2023-04-16T09:42:55;26.85;;;23.83;;
45676;SDS011;31390;51.186;6.830;2023-04-16T09:45:22;26.95;;;24.05;;
45676;SDS011;31390;51.186;6.830;2023-04-16T09:47:48;27.83;;;23.73;;
45676;SDS011;31390;51.186;6.830;2023-04-16T09:50:16;27.02;;;24.05;;
45676;SDS011;31390;51.186;6.830;2023-04-16T09:52:44;27.02;;;24.05;;
45676;SDS011;31390;51.186;6.830;2023-04-16T09:55:12;26.98;;;22.73;;
45676;SDS011;31390;51.186;6.830;2023-04-16T09:57:39;25.67;;;22.25;;
45676;SDS011;31390;51.186;6.830;2023-04-16T10:00:06;24.52;;;21.58;;
45676;SDS011;31390;51.186;6.830;2023-04-16T10:02:34;24.13;;;21.23;;
45676;SDS011;31390;51.186;6.830;2023-04-16T10:05:04;25.00;;;22.40;;
45676;SDS011;31390;51.186;6.830;2023-04-16T10:07:35;25.05;;;21.70;;
45676;SDS011;31390;51.186;6.830;2023-04-16T10:10:02;25.15;;;22.45;;
45676;SDS011;31390;51.186;6.830;2023-04-16T10:12:29;25.83;;;23.08;;
45676;SDS011;31390;51.186;6.830;2023-04-16T10:14:57;25.65;;;22.92;;
45676;SDS011;31390;51.186;6.830;2023-04-16T10:17:27;24.63;;;22.05;;
45676;SDS011;31390;51.186;6.830;2023-04-16T10:19:56;25.92;;;22.65;;
45676;SDS011;31390;51.186;6.830;2023-04-16T10:22:23;26.05;;;23.40;;
45676;SDS011;31390;51.186;6.830;2023-04-16T10:24:49;27.50;;;24.17;;
45676;SDS011;31390;51.186;6.830;2023-04-16T10:27:16;25.10;;;22.48;;
45676;SDS011;31390;51.186;6.830;2023-04-16T10:29:46;27.92;;;24.98;;
45676;SDS011;31390;51.186;6.830;2023-04-16T10:32:13;27.70;;;24.70;;
45676;SDS011;31390;51.186;6.830;2023-04-16T10:34:41;26.95;;;24.20;;
45676;SDS011;31390;51.186;6.830;2023-04-16T10:37:07;26.63;;;23.83;;
45676;SDS011;31390;51.186;6.830;2023-04-16T10:39:34;27.27;;;24.15;;
45676;SDS011;31390;51.186;6.830;2023-04-16T10:42:08;26.90;;;23.38;;
45676;SDS011;31390;51.186;6.830;2023-04-16T10:44:35;26.40;;;23.42;;
45676;SDS011;31390;51.186;6.830;2023-04-16T10:47:02;25.95;;;22.25;;
45676;SDS011;31390;51.186;6.830;2023-04-16T10:49:37;26.52;;;23.17;;
45676;SDS011;31390;51.186;6.830;2023-04-16T10:52:13;24.38;;;21.85;;
45676;SDS011;31390;51.186;6.830;2023-04-16T10:54:42;26.80;;;23.08;;
45676;SDS011;31390;51.186;6.830;2023-04-16T10:57:09;24.00;;;21.02;;
45676;SDS011;31390;51.186;6.830;2023-04-16T10:59:38;25.08;;;21.70;;
45676;SDS011;31390;51.186;6.830;2023-04-16T11:02:10;26.20;;;22.52;;
45676;SDS011;31390;51.186;6.830;2023-04-16T11:04:39;25.75;;;22.90;;
45676;SDS011;31390;51.186;6.830;2023-04-16T11:12:12;26.58;;;20.45;;
45676;SDS011;31390;51.186;6.830;2023-04-16T11:14:39;23.02;;;20.63;;
45676;SDS011;31390;51.186;6.830;2023-04-16T11:17:06;26.38;;;20.20;;
45676;SDS011;31390;51.186;6.830;2023-04-16T11:19:36;22.15;;;19.85;;
45676;SDS011;31390;51.186;6.830;2023-04-16T11:22:03;20.17;;;18.00;;
45676;SDS011;31390;51.186;6.830;2023-04-16T11:24:31;18.38;;;16.52;;
45676;SDS011;31390;51.186;6.830;2023-04-16T11:26:58;20.73;;;17.75;;
45676;SDS011;31390;51.186;6.830;2023-04-16T11:29:24;20.30;;;18.13;;
45676;SDS011;31390;51.186;6.830;2023-04-16T11:31:51;19.02;;;17.10;;
45676;SDS011;31390;51.186;6.830;2023-04-16T11:34:19;19.42;;;17.63;;
45676;SDS011;31390;51.186;6.830;2023-04-16T11:36:49;19.60;;;17.65;;
45676;SDS011;31390;51.186;6.830;2023-04-16T11:39:17;18.38;;;16.52;;
45676;SDS011;31390;51.186;6.830;2023-04-16T11:41:47;17.85;;;16.15;;
45676;SDS011;31390;51.186;6.830;2023-04-16T11:44:17;18.63;;;16.73;;
45676;SDS011;31390;51.186;6.830;2023-04-16T11:46:44;17.08;;;15.32;;
45676;SDS011;31390;51.186;6.830;2023-04-16T11:49:11;17.45;;;15.65;;
45676;SDS011;31390;51.186;6.830;2023-04-16T11:51:41;18.10;;;16.17;;
45676;SDS011;31390;51.186;6.830;2023-04-16T11:54:07;19.55;;;17.65;;
45676;SDS011;31390;51.186;6.830;2023-04-16T11:56:37;17.58;;;15.90;;
45676;SDS011;31390;51.186;6.830;2023-04-16T11:59:10;18.05;;;16.25;;
45676;SDS011;31390;51.186;6.830;2023-04-16T12:01:39;18.00;;;16.30;;
45676;SDS011;31390;51.186;6.830;2023-04-16T12:04:06;18.42;;;16.58;;
45676;SDS011;31390;51.186;6.830;2023-04-16T12:06:33;19.35;;;17.30;;
45676;SDS011;31390;51.186;6.830;2023-04-16T12:09:00;20.13;;;18.02;;
45676;SDS011;31390;51.186;6.830;2023-04-16T12:11:46;21.48;;;19.13;;
45676;SDS011;31390;51.186;6.830;2023-04-16T12:14:13;19.33;;;17.33;;
45676;SDS011;31390;51.186;6.830;2023-04-16T12:16:39;18.15;;;16.35;;
45676;SDS011;31390;51.186;6.830;2023-04-16T12:19:06;15.43;;;13.82;;
45676;SDS011;31390;51.186;6.830;2023-04-16T12:21:39;15.38;;;13.85;;
45676;SDS011;31390;51.186;6.830;2023-04-16T12:24:07;14.93;;;13.52;;
45676;SDS011;31390;51.186;6.830;2023-04-16T12:26:43;13.15;;;12.05;;
45676;SDS011;31390;51.186;6.830;2023-04-16T12:29:14;15.13;;;13.68;;
45676;SDS011;31390;51.186;6.830;2023-04-16T12:31:41;15.07;;;13.68;;
45676;SDS011;31390;51.186;6.830;2023-04-16T12:34:07;14.05;;;12.75;;
45676;SDS011;31390;51.186;6.830;2023-04-16T12:36:35;14.52;;;13.15;;
45676;SDS011;31390;51.186;6.830;2023-04-16T12:39:02;13.68;;;12.38;;
45676;SDS011;31390;51.186;6.830;2023-04-16T12:41:29;13.57;;;12.20;;
45676;SDS011;31390;51.186;6.830;2023-04-16T12:44:14;12.80;;;11.50;;
45676;SDS011;31390;51.186;6.830;2023-04-16T12:46:42;13.50;;;12.18;;
45676;SDS011;31390;51.186;6.830;2023-04-16T12:49:09;12.63;;;11.40;;
45676;SDS011;31390;51.186;6.830;2023-04-16T12:51:36;12.45;;;11.35;;
45676;SDS011;31390;51.186;6.830;2023-04-16T12:54:03;12.27;;;11.13;;
45676;SDS011;31390;51.186;6.830;2023-04-16T12:56:30;12.40;;;11.30;;
45676;SDS011;31390;51.186;6.830;2023-04-16T12:58:57;11.95;;;10.70;;
45676;SDS011;31390;51.186;6.830;2023-04-16T13:01:23;12.10;;;11.00;;
45676;SDS011;31390;51.186;6.830;2023-04-16T13:03:50;12.10;;;10.90;;
45676;SDS011;31390;51.186;6.830;2023-04-16T13:06:17;12.15;;;11.02;;
45676;SDS011;31390;51.186;6.830;2023-04-16T13:08:43;12.18;;;10.98;;
45676;SDS011;31390;51.186;6.830;2023-04-16T13:11:10;11.68;;;10.50;;
45676;SDS011;31390;51.186;6.830;2023-04-16T13:13:37;12.55;;;11.38;;
45676;SDS011;31390;51.186;6.830;2023-04-16T13:16:04;12.35;;;11.15;;
45676;SDS011;31390;51.186;6.830;2023-04-16T13:18:32;12.02;;;10.93;;
45676;SDS011;31390;51.186;6.830;2023-04-16T13:20:58;12.40;;;11.25;;
45676;SDS011;31390;51.186;6.830;2023-04-16T13:23:25;11.95;;;10.60;;
45676;SDS011;31390;51.186;6.830;2023-04-16T13:25:52;11.48;;;10.48;;
45676;SDS011;31390;51.186;6.830;2023-04-16T13:28:18;14.50;;;10.45;;
45676;SDS011;31390;51.186;6.830;2023-04-16T13:30:45;13.35;;;11.93;;
45676;SDS011;31390;51.186;6.830;2023-04-16T13:33:14;13.25;;;11.95;;
45676;SDS011;31390;51.186;6.830;2023-04-16T13:35:41;12.45;;;11.25;;
45676;SDS011;31390;51.186;6.830;2023-04-16T13:38:08;12.98;;;11.68;;
45676;SDS011;31390;51.186;6.830;2023-04-16T13:40:34;12.75;;;11.45;;
45676;SDS011;31390;51.186;6.830;2023-04-16T13:43:01;12.40;;;11.20;;
45676;SDS011;31390;51.186;6.830;2023-04-16T13:45:27;12.50;;;11.20;;
45676;SDS011;31390;51.186;6.830;2023-04-16T13:47:54;12.73;;;11.52;;
45676;SDS011;31390;51.186;6.830;2023-04-16T13:50:21;14.70;;;12.32;;
45676;SDS011;31390;51.186;6.830;2023-04-16T13:52:48;13.48;;;12.25;;
45676;SDS011;31390;51.186;6.830;2023-04-16T13:55:15;13.88;;;12.57;;
45676;SDS011;31390;51.186;6.830;2023-04-16T13:57:47;15.30;;;13.13;;
45676;SDS011;31390;51.186;6.830;2023-04-16T14:00:15;14.05;;;12.65;;
45676;SDS011;31390;51.186;6.830;2023-04-16T14:02:42;14.88;;;12.80;;
45676;SDS011;31390;51.186;6.830;2023-04-16T14:05:11;13.85;;;12.45;;
45676;SDS011;31390;51.186;6.830;2023-04-16T14:07:37;14.23;;;12.73;;
45676;SDS011;31390;51.186;6.830;2023-04-16T14:10:04;13.52;;;12.18;;
45676;SDS011;31390;51.186;6.830;2023-04-16T14:12:31;14.95;;;13.55;;
45676;SDS011;31390;51.186;6.830;2023-04-16T14:14:59;15.15;;;13.10;;
45676;SDS011;31390;51.186;6.830;2023-04-16T14:17:27;15.00;;;13.43;;
45676;SDS011;31390;51.186;6.830;2023-04-16T14:19:53;14.68;;;13.27;;
45676;SDS011;31390;51.186;6.830;2023-04-16T14:22:20;14.95;;;13.45;;
45676;SDS011;31390;51.186;6.830;2023-04-16T14:24:46;13.52;;;12.23;;
45676;SDS011;31390;51.186;6.830;2023-04-16T14:27:13;13.88;;;12.50;;